Aeroporto :
LOGIN :

Iscrizione | Disclaimer

   EN    FR    IT 

 










Sommario :    VFR   VFR Marginale   IFR   IFR Intensivo   IFR Molto Intensivo
Visibilità : 
Base nubi : 
>= 8 km
>= 3000ft
5 / 8 km
1000 / 3000 ft
1500m / 5 km
500 / 1000 ft
800 / 1500m
200 / 500 ft
< 800m
< 200 ft
Simboli :   Temporali  Nebbia  Neve Forte  Precipitazioni Forti  Vento > 20 kt
SIGMETs :   Varie  Temporali  Ghiacco  Turbolenza  Onda orograficha  Ceneri Vulcaniche







- Altitudine del aeroporto : 288 ft
- Codice IATA : BZZ


EGVN - RAF Brize Norton

ULTIMO METAR :
  • 160850Z 21005KT 6000 BR BKN008 BKN028 10/10 Q1022 TEMPO FEW008 BKN025

METARs OBSOLETI :
  • 160750Z 19004KT 5000 BR BKN007 BKN029 09/09 Q1021 TEMPO FEW007 BKN025
  • 160650Z 19003KT 7000 BR BKN007 BKN025 09/09 Q1021 GRN TEMPO BKN006 YLO1

TAF TAF EGVN
Valido dal 16 a 09 ore il 17 a 09 ore UTC


160746Z 1609/1709 22007KT 9999 FEW020
TEMPO 1609/1613 BKN020
PROB40
TEMPO 1609/1610 6000 BR SCT008
BECMG 1613/1616 BKN012
BECMG 1618/1621 BKN006
TEMPO 1621/1703 3000 BR BKN003
BECMG 1703/1705 FEW006
Nessun NOTAM noto per questo aeroporto.



MetMap, La meteo Aeronautica in un colpo d'occhio ! - Copyright ORBIFLY Dicembre 2007 - Disclaimer

ORBIFLY MET'MAP TEAM :

Programmazione e sviluppo : Alexandra Zaïnal
Concezione e sviluppo : Baudouin d'Aumeries
Co-Programmazione e sviluppo : Marc-Olivier Méhu
Supporto tecnico e logistico : Manuel Goepfert
Aiuto per la traduzione : Arnaldo La Scala

Contatto : metmap@orbifly.com




FONTI E CREDITI :

   NOAA